This is the latest recevied weather packets stored in our database for station/object KD8DLP-13. If no packets are shown the sender has not sent any weather packets the latest 10 day(s).
| Time | Temp. | Humidity | Pressure | Rain* | Wind** | Luminosity | Snow |
|---|---|---|---|---|---|---|---|
| 1777679486 | 5.56° C | 53% | 1017.9 hPa | 0 mm | - | 33 W/m² | - |
| 1777679181 | 6.11° C | 54% | 1017.9 hPa | 0 mm | - | 36 W/m² | - |
| 1777678879 | 6.11° C | 54% | 1018 hPa | 0 mm | - | 39 W/m² | - |
| 1777678577 | 6.11° C | 53% | 1017.8 hPa | 0 mm | - | 43 W/m² | - |
| 1777678274 | 6.67° C | 53% | 1017.8 hPa | 0 mm | - | 47 W/m² | - |
| 1777677969 | 6.67° C | 54% | 1018 hPa | 0 mm | - | 54 W/m² | - |
| 1777677667 | 6.67° C | 53% | 1017.9 hPa | 0 mm | - | 59 W/m² | - |
| 1777677365 | 6.67° C | 53% | 1017.8 hPa | 0 mm | - | 63 W/m² | - |
| 1777677063 | 6.67° C | 52% | 1017.5 hPa | 0 mm | - | 49 W/m² | - |
| 1777676761 | 6.67° C | 51% | 1017.6 hPa | 0 mm | - | 37 W/m² | - |
| 1777676459 | 6.67° C | 50% | 1017.6 hPa | 0 mm | - | 50 W/m² | - |
| 1777676156 | 7.22° C | 51% | 1017.4 hPa | 0 mm | - | 87 W/m² | - |
| 1777675852 | 7.22° C | 52% | 1017.4 hPa | 0 mm | - | 114 W/m² | - |
| 1777675550 | 7.78° C | 51% | 1017.5 hPa | 0 mm | - | 121 W/m² | - |
| 1777675247 | 7.78° C | 50% | 1017.6 hPa | 0 mm | - | 125 W/m² | - |
| 1777674943 | 8.33° C | 48% | 1017.3 hPa | 0 mm | - | 136 W/m² | - |
| 1777674640 | 8.89° C | 46% | 1017.3 hPa | 0 mm | - | 140 W/m² | - |
| 1777674339 | 9.44° C | 46% | 1017.5 hPa | 0 mm | - | 146 W/m² | - |
| 1777674034 | 9.44° C | 45% | 1017.4 hPa | 0 mm | - | 186 W/m² | - |
| 1777673729 | 10° C | 44% | 1017.4 hPa | 0 mm | - | 341 W/m² | - |
| 1777673427 | 10° C | 43% | 1017.2 hPa | 0 mm | - | 363 W/m² | - |
| 1777673125 | 10° C | 45% | 1017.3 hPa | 0 mm | - | 392 W/m² | - |
| 1777672821 | 9.44° C | 46% | 1017.3 hPa | 0 mm | - | 248 W/m² | - |
| 1777672517 | 8.33° C | 45% | 1017.2 hPa | 0 mm | - | 218 W/m² | - |
| 1777672213 | 8.33° C | 45% | 1017.1 hPa | 0 mm | - | 139 W/m² | - |
* Rain latest hour (hover to see other rain measurements)
** Current wind speed in m/s (hover to see current wind gust speed)